sensor_id;sensor_type;location;lat;lon;timestamp;P1;durP1;ratioP1;P2;durP2;ratioP2
57832;SDS011;43667;53.036;6.740;2023-04-15T00:00:40;10.50;;;5.65;;
57832;SDS011;43667;53.036;6.740;2023-04-15T00:03:06;9.60;;;5.00;;
57832;SDS011;43667;53.036;6.740;2023-04-15T00:05:32;10.07;;;5.40;;
57832;SDS011;43667;53.036;6.740;2023-04-15T00:07:58;15.93;;;5.90;;
57832;SDS011;43667;53.036;6.740;2023-04-15T00:10:24;9.05;;;5.90;;
57832;SDS011;43667;53.036;6.740;2023-04-15T00:12:50;14.07;;;5.88;;
57832;SDS011;43667;53.036;6.740;2023-04-15T00:15:16;10.82;;;5.90;;
57832;SDS011;43667;53.036;6.740;2023-04-15T00:17:42;8.43;;;5.30;;
57832;SDS011;43667;53.036;6.740;2023-04-15T00:20:07;9.13;;;5.72;;
57832;SDS011;43667;53.036;6.740;2023-04-15T00:22:34;10.82;;;5.30;;
57832;SDS011;43667;53.036;6.740;2023-04-15T00:25:00;11.82;;;6.65;;
57832;SDS011;43667;53.036;6.740;2023-04-15T00:27:26;10.85;;;6.28;;
57832;SDS011;43667;53.036;6.740;2023-04-15T00:29:52;11.25;;;6.22;;
57832;SDS011;43667;53.036;6.740;2023-04-15T00:32:17;13.23;;;6.28;;
57832;SDS011;43667;53.036;6.740;2023-04-15T00:34:44;9.55;;;6.45;;
57832;SDS011;43667;53.036;6.740;2023-04-15T00:37:10;10.98;;;5.53;;
57832;SDS011;43667;53.036;6.740;2023-04-15T00:39:36;9.00;;;5.68;;
57832;SDS011;43667;53.036;6.740;2023-04-15T00:42:03;14.25;;;6.10;;
57832;SDS011;43667;53.036;6.740;2023-04-15T00:44:29;9.88;;;6.50;;
57832;SDS011;43667;53.036;6.740;2023-04-15T00:46:55;10.02;;;6.50;;
57832;SDS011;43667;53.036;6.740;2023-04-15T00:49:21;13.48;;;7.43;;
57832;SDS011;43667;53.036;6.740;2023-04-15T00:51:47;14.45;;;7.28;;
57832;SDS011;43667;53.036;6.740;2023-04-15T00:54:13;12.30;;;6.88;;
57832;SDS011;43667;53.036;6.740;2023-04-15T00:56:39;12.32;;;7.32;;
57832;SDS011;43667;53.036;6.740;2023-04-15T00:59:05;12.80;;;7.50;;
57832;SDS011;43667;53.036;6.740;2023-04-15T01:01:33;12.20;;;6.63;;
57832;SDS011;43667;53.036;6.740;2023-04-15T01:04:02;11.38;;;6.68;;
57832;SDS011;43667;53.036;6.740;2023-04-15T01:06:29;14.40;;;7.95;;
57832;SDS011;43667;53.036;6.740;2023-04-15T01:08:56;12.63;;;7.55;;
57832;SDS011;43667;53.036;6.740;2023-04-15T01:11:22;12.43;;;7.72;;
57832;SDS011;43667;53.036;6.740;2023-04-15T01:13:49;11.27;;;7.45;;
57832;SDS011;43667;53.036;6.740;2023-04-15T01:16:16;11.60;;;6.72;;
57832;SDS011;43667;53.036;6.740;2023-04-15T01:18:42;11.45;;;6.95;;
57832;SDS011;43667;53.036;6.740;2023-04-15T01:21:07;12.23;;;6.53;;
57832;SDS011;43667;53.036;6.740;2023-04-15T01:23:34;10.07;;;5.60;;
57832;SDS011;43667;53.036;6.740;2023-04-15T01:26:02;11.80;;;5.82;;
57832;SDS011;43667;53.036;6.740;2023-04-15T01:28:28;11.50;;;7.40;;
57832;SDS011;43667;53.036;6.740;2023-04-15T01:31:28;12.13;;;7.03;;
57832;SDS011;43667;53.036;6.740;2023-04-15T01:33:47;14.93;;;6.95;;
57832;SDS011;43667;53.036;6.740;2023-04-15T01:36:12;14.32;;;7.68;;
57832;SDS011;43667;53.036;6.740;2023-04-15T01:38:38;9.65;;;7.05;;
57832;SDS011;43667;53.036;6.740;2023-04-15T01:41:05;13.13;;;7.40;;
57832;SDS011;43667;53.036;6.740;2023-04-15T01:43:32;16.52;;;8.30;;
57832;SDS011;43667;53.036;6.740;2023-04-15T01:45:58;16.55;;;8.60;;
57832;SDS011;43667;53.036;6.740;2023-04-15T01:48:24;12.75;;;7.82;;
57832;SDS011;43667;53.036;6.740;2023-04-15T01:50:50;13.63;;;8.30;;
57832;SDS011;43667;53.036;6.740;2023-04-15T01:53:16;11.23;;;7.25;;
57832;SDS011;43667;53.036;6.740;2023-04-15T01:55:42;10.55;;;7.40;;
57832;SDS011;43667;53.036;6.740;2023-04-15T01:58:07;13.60;;;8.30;;
57832;SDS011;43667;53.036;6.740;2023-04-15T02:00:33;17.40;;;9.02;;
57832;SDS011;43667;53.036;6.740;2023-04-15T02:02:59;11.02;;;7.97;;
57832;SDS011;43667;53.036;6.740;2023-04-15T02:05:25;13.10;;;8.48;;
57832;SDS011;43667;53.036;6.740;2023-04-15T02:07:50;12.35;;;7.45;;
57832;SDS011;43667;53.036;6.740;2023-04-15T02:10:16;13.02;;;8.95;;
57832;SDS011;43667;53.036;6.740;2023-04-15T02:12:42;13.65;;;9.18;;
57832;SDS011;43667;53.036;6.740;2023-04-15T02:15:07;15.20;;;10.23;;
57832;SDS011;43667;53.036;6.740;2023-04-15T02:17:34;11.52;;;9.43;;
57832;SDS011;43667;53.036;6.740;2023-04-15T02:20:01;14.90;;;10.35;;
57832;SDS011;43667;53.036;6.740;2023-04-15T02:22:29;17.95;;;9.88;;
57832;SDS011;43667;53.036;6.740;2023-04-15T02:24:55;13.77;;;9.68;;
57832;SDS011;43667;53.036;6.740;2023-04-15T02:27:21;13.55;;;9.77;;
57832;SDS011;43667;53.036;6.740;2023-04-15T02:29:46;12.95;;;10.45;;
57832;SDS011;43667;53.036;6.740;2023-04-15T02:32:12;11.95;;;10.43;;
57832;SDS011;43667;53.036;6.740;2023-04-15T02:34:38;14.70;;;10.38;;
57832;SDS011;43667;53.036;6.740;2023-04-15T02:37:07;18.15;;;10.93;;
57832;SDS011;43667;53.036;6.740;2023-04-15T02:39:36;15.68;;;10.32;;
57832;SDS011;43667;53.036;6.740;2023-04-15T02:42:03;13.43;;;10.70;;
57832;SDS011;43667;53.036;6.740;2023-04-15T02:44:30;12.20;;;10.38;;
57832;SDS011;43667;53.036;6.740;2023-04-15T02:46:56;12.45;;;9.85;;
57832;SDS011;43667;53.036;6.740;2023-04-15T02:49:22;14.57;;;11.45;;
57832;SDS011;43667;53.036;6.740;2023-04-15T02:51:49;13.07;;;9.25;;
57832;SDS011;43667;53.036;6.740;2023-04-15T02:54:20;14.93;;;9.18;;
57832;SDS011;43667;53.036;6.740;2023-04-15T02:56:49;15.60;;;9.45;;
57832;SDS011;43667;53.036;6.740;2023-04-15T02:59:19;18.45;;;9.95;;
57832;SDS011;43667;53.036;6.740;2023-04-15T03:01:44;13.95;;;9.40;;
57832;SDS011;43667;53.036;6.740;2023-04-15T03:04:10;11.73;;;9.18;;
57832;SDS011;43667;53.036;6.740;2023-04-15T03:06:36;14.82;;;9.48;;
57832;SDS011;43667;53.036;6.740;2023-04-15T03:09:01;12.32;;;9.32;;
57832;SDS011;43667;53.036;6.740;2023-04-15T03:11:31;12.13;;;9.93;;
57832;SDS011;43667;53.036;6.740;2023-04-15T03:13:57;9.65;;;8.20;;
57832;SDS011;43667;53.036;6.740;2023-04-15T03:16:23;13.55;;;9.10;;
57832;SDS011;43667;53.036;6.740;2023-04-15T03:18:49;14.02;;;10.40;;
57832;SDS011;43667;53.036;6.740;2023-04-15T03:21:14;14.18;;;9.90;;
57832;SDS011;43667;53.036;6.740;2023-04-15T03:23:40;10.90;;;9.30;;
57832;SDS011;43667;53.036;6.740;2023-04-15T03:26:06;20.23;;;13.05;;
57832;SDS011;43667;53.036;6.740;2023-04-15T03:28:31;18.95;;;13.18;;
57832;SDS011;43667;53.036;6.740;2023-04-15T03:30:57;17.55;;;13.10;;
57832;SDS011;43667;53.036;6.740;2023-04-15T03:33:23;19.65;;;13.35;;
57832;SDS011;43667;53.036;6.740;2023-04-15T03:35:49;17.90;;;13.80;;
57832;SDS011;43667;53.036;6.740;2023-04-15T03:38:16;20.90;;;15.93;;
57832;SDS011;43667;53.036;6.740;2023-04-15T03:40:42;18.33;;;14.52;;
57832;SDS011;43667;53.036;6.740;2023-04-15T03:43:07;22.15;;;15.77;;
57832;SDS011;43667;53.036;6.740;2023-04-15T03:45:33;19.08;;;15.30;;
57832;SDS011;43667;53.036;6.740;2023-04-15T03:47:59;17.85;;;13.63;;
57832;SDS011;43667;53.036;6.740;2023-04-15T03:50:24;16.05;;;13.27;;
57832;SDS011;43667;53.036;6.740;2023-04-15T03:52:50;20.60;;;13.40;;
57832;SDS011;43667;53.036;6.740;2023-04-15T03:55:16;19.25;;;13.25;;
57832;SDS011;43667;53.036;6.740;2023-04-15T03:57:41;17.85;;;12.85;;
57832;SDS011;43667;53.036;6.740;2023-04-15T04:00:07;17.88;;;13.32;;
57832;SDS011;43667;53.036;6.740;2023-04-15T04:02:36;18.83;;;12.48;;
57832;SDS011;43667;53.036;6.740;2023-04-15T04:05:02;16.52;;;12.55;;
57832;SDS011;43667;53.036;6.740;2023-04-15T04:07:28;18.05;;;12.82;;
57832;SDS011;43667;53.036;6.740;2023-04-15T04:09:55;19.25;;;13.68;;
57832;SDS011;43667;53.036;6.740;2023-04-15T04:12:21;21.55;;;13.93;;
57832;SDS011;43667;53.036;6.740;2023-04-15T04:14:47;22.40;;;15.30;;
57832;SDS011;43667;53.036;6.740;2023-04-15T04:17:13;20.83;;;15.50;;
57832;SDS011;43667;53.036;6.740;2023-04-15T04:19:38;20.70;;;14.40;;
57832;SDS011;43667;53.036;6.740;2023-04-15T04:22:04;22.60;;;15.05;;
57832;SDS011;43667;53.036;6.740;2023-04-15T04:24:29;18.98;;;15.43;;
57832;SDS011;43667;53.036;6.740;2023-04-15T04:26:55;22.08;;;14.85;;
57832;SDS011;43667;53.036;6.740;2023-04-15T04:29:21;22.13;;;16.08;;
57832;SDS011;43667;53.036;6.740;2023-04-15T04:31:47;19.15;;;14.85;;
57832;SDS011;43667;53.036;6.740;2023-04-15T04:34:13;19.42;;;14.63;;
57832;SDS011;43667;53.036;6.740;2023-04-15T04:36:39;21.48;;;15.02;;
57832;SDS011;43667;53.036;6.740;2023-04-15T04:39:04;26.30;;;17.75;;
57832;SDS011;43667;53.036;6.740;2023-04-15T04:41:30;24.05;;;17.17;;
57832;SDS011;43667;53.036;6.740;2023-04-15T04:43:56;24.52;;;17.08;;
57832;SDS011;43667;53.036;6.740;2023-04-15T04:46:22;37.20;;;20.20;;
57832;SDS011;43667;53.036;6.740;2023-04-15T04:48:48;29.77;;;19.85;;
57832;SDS011;43667;53.036;6.740;2023-04-15T04:51:13;33.10;;;21.48;;
57832;SDS011;43667;53.036;6.740;2023-04-15T04:53:39;31.40;;;22.63;;
57832;SDS011;43667;53.036;6.740;2023-04-15T04:56:07;35.30;;;22.60;;
57832;SDS011;43667;53.036;6.740;2023-04-15T04:58:32;33.35;;;22.80;;
57832;SDS011;43667;53.036;6.740;2023-04-15T05:00:58;31.20;;;22.25;;
57832;SDS011;43667;53.036;6.740;2023-04-15T05:03:23;35.90;;;23.85;;
57832;SDS011;43667;53.036;6.740;2023-04-15T05:05:49;40.67;;;26.02;;
57832;SDS011;43667;53.036;6.740;2023-04-15T05:08:15;41.30;;;24.92;;
57832;SDS011;43667;53.036;6.740;2023-04-15T05:10:40;40.08;;;25.33;;
57832;SDS011;43667;53.036;6.740;2023-04-15T05:13:06;35.20;;;23.85;;
57832;SDS011;43667;53.036;6.740;2023-04-15T05:15:32;41.78;;;25.27;;
57832;SDS011;43667;53.036;6.740;2023-04-15T05:17:58;40.08;;;24.70;;
57832;SDS011;43667;53.036;6.740;2023-04-15T05:20:24;35.00;;;22.40;;
57832;SDS011;43667;53.036;6.740;2023-04-15T05:22:50;43.92;;;25.98;;
57832;SDS011;43667;53.036;6.740;2023-04-15T05:25:16;37.05;;;25.10;;
57832;SDS011;43667;53.036;6.740;2023-04-15T05:27:42;51.35;;;28.05;;
57832;SDS011;43667;53.036;6.740;2023-04-15T05:30:08;38.72;;;26.73;;
57832;SDS011;43667;53.036;6.740;2023-04-15T05:32:34;38.40;;;25.63;;
57832;SDS011;43667;53.036;6.740;2023-04-15T05:34:59;41.47;;;25.23;;
57832;SDS011;43667;53.036;6.740;2023-04-15T05:37:25;39.00;;;25.77;;
57832;SDS011;43667;53.036;6.740;2023-04-15T05:39:51;39.63;;;25.25;;
57832;SDS011;43667;53.036;6.740;2023-04-15T05:42:16;37.53;;;25.13;;
57832;SDS011;43667;53.036;6.740;2023-04-15T05:44:42;36.17;;;24.38;;
57832;SDS011;43667;53.036;6.740;2023-04-15T05:47:07;40.38;;;26.83;;
57832;SDS011;43667;53.036;6.740;2023-04-15T05:49:34;39.70;;;26.35;;
57832;SDS011;43667;53.036;6.740;2023-04-15T05:52:00;39.08;;;26.98;;
57832;SDS011;43667;53.036;6.740;2023-04-15T05:54:26;38.35;;;27.20;;
57832;SDS011;43667;53.036;6.740;2023-04-15T05:56:52;40.28;;;26.08;;
57832;SDS011;43667;53.036;6.740;2023-04-15T05:59:17;34.95;;;24.88;;
57832;SDS011;43667;53.036;6.740;2023-04-15T06:01:43;35.60;;;25.65;;
57832;SDS011;43667;53.036;6.740;2023-04-15T06:04:09;36.70;;;26.50;;
57832;SDS011;43667;53.036;6.740;2023-04-15T06:06:35;31.63;;;23.92;;
57832;SDS011;43667;53.036;6.740;2023-04-15T06:09:02;34.22;;;24.45;;
57832;SDS011;43667;53.036;6.740;2023-04-15T06:11:28;31.75;;;23.20;;
57832;SDS011;43667;53.036;6.740;2023-04-15T06:13:53;29.30;;;23.20;;
57832;SDS011;43667;53.036;6.740;2023-04-15T06:16:19;30.08;;;22.73;;
57832;SDS011;43667;53.036;6.740;2023-04-15T06:18:44;29.17;;;22.15;;
57832;SDS011;43667;53.036;6.740;2023-04-15T06:21:10;25.55;;;22.10;;
57832;SDS011;43667;53.036;6.740;2023-04-15T06:23:35;26.50;;;21.23;;
57832;SDS011;43667;53.036;6.740;2023-04-15T06:26:01;29.33;;;22.38;;
57832;SDS011;43667;53.036;6.740;2023-04-15T06:28:27;26.63;;;19.60;;
57832;SDS011;43667;53.036;6.740;2023-04-15T06:30:53;22.85;;;19.58;;
57832;SDS011;43667;53.036;6.740;2023-04-15T06:33:20;26.90;;;21.73;;
57832;SDS011;43667;53.036;6.740;2023-04-15T06:35:45;24.83;;;19.77;;
57832;SDS011;43667;53.036;6.740;2023-04-15T06:38:11;23.73;;;19.00;;
57832;SDS011;43667;53.036;6.740;2023-04-15T06:40:38;27.35;;;22.13;;
57832;SDS011;43667;53.036;6.740;2023-04-15T06:43:03;30.02;;;23.40;;
57832;SDS011;43667;53.036;6.740;2023-04-15T06:45:29;23.25;;;18.85;;
57832;SDS011;43667;53.036;6.740;2023-04-15T06:47:55;26.38;;;21.40;;
57832;SDS011;43667;53.036;6.740;2023-04-15T06:50:21;25.70;;;20.38;;
57832;SDS011;43667;53.036;6.740;2023-04-15T06:52:46;25.88;;;19.00;;
57832;SDS011;43667;53.036;6.740;2023-04-15T06:55:12;21.92;;;17.33;;
57832;SDS011;43667;53.036;6.740;2023-04-15T06:57:38;21.25;;;18.58;;
57832;SDS011;43667;53.036;6.740;2023-04-15T07:00:04;22.10;;;17.25;;
57832;SDS011;43667;53.036;6.740;2023-04-15T07:02:31;21.15;;;16.35;;
57832;SDS011;43667;53.036;6.740;2023-04-15T07:04:57;19.60;;;15.23;;
57832;SDS011;43667;53.036;6.740;2023-04-15T07:07:22;21.88;;;15.65;;
57832;SDS011;43667;53.036;6.740;2023-04-15T07:09:48;16.50;;;13.73;;
57832;SDS011;43667;53.036;6.740;2023-04-15T07:12:14;17.73;;;14.45;;
57832;SDS011;43667;53.036;6.740;2023-04-15T07:14:39;18.30;;;14.95;;
57832;SDS011;43667;53.036;6.740;2023-04-15T07:17:05;15.68;;;12.48;;
57832;SDS011;43667;53.036;6.740;2023-04-15T07:19:31;15.45;;;11.90;;
57832;SDS011;43667;53.036;6.740;2023-04-15T07:21:57;17.30;;;12.00;;
57832;SDS011;43667;53.036;6.740;2023-04-15T07:24:22;15.43;;;10.52;;
57832;SDS011;43667;53.036;6.740;2023-04-15T07:26:52;12.65;;;10.00;;
57832;SDS011;43667;53.036;6.740;2023-04-15T07:29:18;15.88;;;11.18;;
57832;SDS011;43667;53.036;6.740;2023-04-15T07:31:44;14.90;;;9.82;;
57832;SDS011;43667;53.036;6.740;2023-04-15T07:34:10;11.15;;;9.10;;
57832;SDS011;43667;53.036;6.740;2023-04-15T07:36:36;12.30;;;8.65;;
57832;SDS011;43667;53.036;6.740;2023-04-15T07:39:01;10.63;;;8.90;;
57832;SDS011;43667;53.036;6.740;2023-04-15T07:41:28;11.85;;;7.43;;
57832;SDS011;43667;53.036;6.740;2023-04-15T07:43:54;12.18;;;8.00;;
57832;SDS011;43667;53.036;6.740;2023-04-15T07:46:20;8.00;;;6.85;;
57832;SDS011;43667;53.036;6.740;2023-04-15T07:48:48;10.65;;;6.93;;
57832;SDS011;43667;53.036;6.740;2023-04-15T07:51:13;10.77;;;6.78;;
57832;SDS011;43667;53.036;6.740;2023-04-15T07:53:39;9.82;;;6.40;;
57832;SDS011;43667;53.036;6.740;2023-04-15T07:56:05;8.00;;;6.28;;
57832;SDS011;43667;53.036;6.740;2023-04-15T07:58:31;8.63;;;5.75;;
57832;SDS011;43667;53.036;6.740;2023-04-15T08:00:56;9.18;;;6.47;;
57832;SDS011;43667;53.036;6.740;2023-04-15T08:03:24;8.40;;;6.40;;
57832;SDS011;43667;53.036;6.740;2023-04-15T08:05:50;10.90;;;6.57;;
57832;SDS011;43667;53.036;6.740;2023-04-15T08:08:15;9.23;;;5.70;;
57832;SDS011;43667;53.036;6.740;2023-04-15T08:10:41;7.10;;;5.53;;
57832;SDS011;43667;53.036;6.740;2023-04-15T08:13:06;11.30;;;6.05;;
57832;SDS011;43667;53.036;6.740;2023-04-15T08:15:32;9.43;;;6.07;;
57832;SDS011;43667;53.036;6.740;2023-04-15T08:17:58;9.15;;;5.85;;
57832;SDS011;43667;53.036;6.740;2023-04-15T08:20:25;8.70;;;6.65;;
57832;SDS011;43667;53.036;6.740;2023-04-15T08:22:50;10.30;;;4.85;;
57832;SDS011;43667;53.036;6.740;2023-04-15T08:25:16;6.20;;;4.53;;
57832;SDS011;43667;53.036;6.740;2023-04-15T08:27:43;6.05;;;4.07;;
57832;SDS011;43667;53.036;6.740;2023-04-15T08:30:09;7.25;;;3.63;;
57832;SDS011;43667;53.036;6.740;2023-04-15T08:32:35;5.57;;;3.50;;
57832;SDS011;43667;53.036;6.740;2023-04-15T08:35:01;5.15;;;3.58;;
57832;SDS011;43667;53.036;6.740;2023-04-15T08:37:27;6.30;;;3.63;;
57832;SDS011;43667;53.036;6.740;2023-04-15T08:39:53;6.38;;;4.38;;
57832;SDS011;43667;53.036;6.740;2023-04-15T08:42:22;7.28;;;4.03;;
57832;SDS011;43667;53.036;6.740;2023-04-15T08:44:51;5.38;;;3.85;;
57832;SDS011;43667;53.036;6.740;2023-04-15T08:47:19;5.53;;;4.03;;
57832;SDS011;43667;53.036;6.740;2023-04-15T08:49:46;8.13;;;4.38;;
57832;SDS011;43667;53.036;6.740;2023-04-15T08:52:17;6.30;;;4.03;;
57832;SDS011;43667;53.036;6.740;2023-04-15T08:54:44;9.15;;;4.53;;
57832;SDS011;43667;53.036;6.740;2023-04-15T08:57:10;7.00;;;3.80;;
57832;SDS011;43667;53.036;6.740;2023-04-15T08:59:36;11.48;;;3.97;;
57832;SDS011;43667;53.036;6.740;2023-04-15T09:02:03;6.95;;;3.38;;
57832;SDS011;43667;53.036;6.740;2023-04-15T09:04:28;9.55;;;3.67;;
57832;SDS011;43667;53.036;6.740;2023-04-15T09:06:55;6.72;;;3.00;;
57832;SDS011;43667;53.036;6.740;2023-04-15T09:09:21;6.32;;;2.97;;
57832;SDS011;43667;53.036;6.740;2023-04-15T09:11:46;5.38;;;3.30;;
57832;SDS011;43667;53.036;6.740;2023-04-15T09:14:14;6.80;;;2.80;;
57832;SDS011;43667;53.036;6.740;2023-04-15T09:19:28;4.60;;;2.25;;
57832;SDS011;43667;53.036;6.740;2023-04-15T09:21:55;4.47;;;2.60;;
57832;SDS011;43667;53.036;6.740;2023-04-15T09:24:22;4.97;;;1.77;;
57832;SDS011;43667;53.036;6.740;2023-04-15T09:26:53;2.65;;;1.75;;
57832;SDS011;43667;53.036;6.740;2023-04-15T09:29:23;6.63;;;1.73;;
57832;SDS011;43667;53.036;6.740;2023-04-15T09:31:50;6.15;;;2.30;;
57832;SDS011;43667;53.036;6.740;2023-04-15T09:34:16;3.40;;;1.88;;
57832;SDS011;43667;53.036;6.740;2023-04-15T09:36:55;3.67;;;2.08;;
57832;SDS011;43667;53.036;6.740;2023-04-15T09:39:21;3.28;;;1.80;;
57832;SDS011;43667;53.036;6.740;2023-04-15T09:41:56;5.93;;;1.83;;
57832;SDS011;43667;53.036;6.740;2023-04-15T09:44:29;4.07;;;1.77;;
57832;SDS011;43667;53.036;6.740;2023-04-15T09:46:55;6.32;;;2.00;;
57832;SDS011;43667;53.036;6.740;2023-04-15T09:49:21;2.90;;;1.90;;
57832;SDS011;43667;53.036;6.740;2023-04-15T09:51:47;2.45;;;1.63;;
57832;SDS011;43667;53.036;6.740;2023-04-15T09:54:14;5.45;;;1.80;;
57832;SDS011;43667;53.036;6.740;2023-04-15T09:56:44;7.72;;;2.22;;
57832;SDS011;43667;53.036;6.740;2023-04-15T09:59:10;2.58;;;1.85;;
57832;SDS011;43667;53.036;6.740;2023-04-15T10:01:36;3.42;;;2.10;;
57832;SDS011;43667;53.036;6.740;2023-04-15T10:04:03;4.60;;;2.45;;
57832;SDS011;43667;53.036;6.740;2023-04-15T10:06:30;4.20;;;2.67;;
57832;SDS011;43667;53.036;6.740;2023-04-15T10:08:57;2.92;;;2.08;;
57832;SDS011;43667;53.036;6.740;2023-04-15T10:11:25;5.53;;;2.05;;
57832;SDS011;43667;53.036;6.740;2023-04-15T10:13:53;4.63;;;2.10;;
57832;SDS011;43667;53.036;6.740;2023-04-15T10:16:20;5.18;;;2.00;;
57832;SDS011;43667;53.036;6.740;2023-04-15T10:18:54;3.30;;;1.92;;
57832;SDS011;43667;53.036;6.740;2023-04-15T10:21:20;3.22;;;1.77;;
57832;SDS011;43667;53.036;6.740;2023-04-15T10:23:47;3.40;;;1.90;;
57832;SDS011;43667;53.036;6.740;2023-04-15T10:26:13;4.50;;;2.38;;
57832;SDS011;43667;53.036;6.740;2023-04-15T10:28:41;7.45;;;1.90;;
57832;SDS011;43667;53.036;6.740;2023-04-15T10:31:07;5.50;;;1.95;;
57832;SDS011;43667;53.036;6.740;2023-04-15T10:33:35;5.53;;;1.90;;
57832;SDS011;43667;53.036;6.740;2023-04-15T10:36:02;4.63;;;2.05;;
57832;SDS011;43667;53.036;6.740;2023-04-15T10:38:36;5.55;;;1.70;;
57832;SDS011;43667;53.036;6.740;2023-04-15T10:41:11;4.07;;;1.50;;
57832;SDS011;43667;53.036;6.740;2023-04-15T10:43:49;4.97;;;1.73;;
57832;SDS011;43667;53.036;6.740;2023-04-15T10:46:22;3.88;;;1.67;;
57832;SDS011;43667;53.036;6.740;2023-04-15T10:48:49;5.65;;;2.05;;
57832;SDS011;43667;53.036;6.740;2023-04-15T10:51:25;3.92;;;1.40;;
57832;SDS011;43667;53.036;6.740;2023-04-15T10:53:55;3.85;;;1.63;;
57832;SDS011;43667;53.036;6.740;2023-04-15T10:56:22;5.45;;;1.88;;
57832;SDS011;43667;53.036;6.740;2023-04-15T10:58:48;5.45;;;1.70;;
57832;SDS011;43667;53.036;6.740;2023-04-15T11:01:13;3.50;;;1.80;;
57832;SDS011;43667;53.036;6.740;2023-04-15T11:03:40;7.10;;;1.80;;
57832;SDS011;43667;53.036;6.740;2023-04-15T11:06:07;7.13;;;2.10;;
57832;SDS011;43667;53.036;6.740;2023-04-15T11:08:53;4.63;;;1.83;;
57832;SDS011;43667;53.036;6.740;2023-04-15T11:14:26;9.02;;;2.00;;
57832;SDS011;43667;53.036;6.740;2023-04-15T11:16:52;5.85;;;1.88;;
57832;SDS011;43667;53.036;6.740;2023-04-15T11:19:17;6.63;;;2.35;;
57832;SDS011;43667;53.036;6.740;2023-04-15T11:21:43;7.75;;;2.20;;
57832;SDS011;43667;53.036;6.740;2023-04-15T11:24:09;8.25;;;2.13;;
57832;SDS011;43667;53.036;6.740;2023-04-15T11:26:34;5.93;;;2.58;;
57832;SDS011;43667;53.036;6.740;2023-04-15T11:29:00;5.65;;;2.10;;
57832;SDS011;43667;53.036;6.740;2023-04-15T11:31:26;8.20;;;2.80;;
57832;SDS011;43667;53.036;6.740;2023-04-15T11:33:54;6.53;;;2.22;;
57832;SDS011;43667;53.036;6.740;2023-04-15T11:36:23;6.20;;;2.08;;
57832;SDS011;43667;53.036;6.740;2023-04-15T11:38:51;8.50;;;2.17;;
57832;SDS011;43667;53.036;6.740;2023-04-15T11:41:20;8.75;;;1.83;;
57832;SDS011;43667;53.036;6.740;2023-04-15T11:43:47;7.10;;;1.92;;
57832;SDS011;43667;53.036;6.740;2023-04-15T11:46:13;6.68;;;1.90;;
57832;SDS011;43667;53.036;6.740;2023-04-15T11:48:41;9.93;;;1.80;;
57832;SDS011;43667;53.036;6.740;2023-04-15T11:51:10;5.70;;;1.42;;
57832;SDS011;43667;53.036;6.740;2023-04-15T11:53:40;9.52;;;2.42;;
57832;SDS011;43667;53.036;6.740;2023-04-15T11:56:32;8.20;;;1.27;;
57832;SDS011;43667;53.036;6.740;2023-04-15T11:58:57;8.77;;;1.80;;
57832;SDS011;43667;53.036;6.740;2023-04-15T12:01:36;5.20;;;1.52;;
57832;SDS011;43667;53.036;6.740;2023-04-15T12:04:10;9.85;;;1.90;;
57832;SDS011;43667;53.036;6.740;2023-04-15T12:06:37;4.70;;;1.55;;
57832;SDS011;43667;53.036;6.740;2023-04-15T12:11:46;6.82;;;1.70;;
57832;SDS011;43667;53.036;6.740;2023-04-15T12:16:59;7.15;;;2.47;;
57832;SDS011;43667;53.036;6.740;2023-04-15T12:19:26;9.45;;;1.60;;
57832;SDS011;43667;53.036;6.740;2023-04-15T12:22:02;8.40;;;1.73;;
57832;SDS011;43667;53.036;6.740;2023-04-15T12:24:34;4.07;;;1.65;;
57832;SDS011;43667;53.036;6.740;2023-04-15T12:27:01;8.82;;;2.17;;
57832;SDS011;43667;53.036;6.740;2023-04-15T12:29:32;6.75;;;1.67;;
57832;SDS011;43667;53.036;6.740;2023-04-15T12:32:06;11.07;;;2.15;;
57832;SDS011;43667;53.036;6.740;2023-04-15T12:34:39;3.97;;;1.45;;
57832;SDS011;43667;53.036;6.740;2023-04-15T12:37:07;4.85;;;1.48;;
57832;SDS011;43667;53.036;6.740;2023-04-15T12:39:35;9.38;;;1.58;;
57832;SDS011;43667;53.036;6.740;2023-04-15T12:42:05;8.02;;;1.48;;
57832;SDS011;43667;53.036;6.740;2023-04-15T12:44:32;8.73;;;2.13;;
57832;SDS011;43667;53.036;6.740;2023-04-15T12:46:58;9.20;;;1.55;;
57832;SDS011;43667;53.036;6.740;2023-04-15T12:49:24;9.95;;;1.70;;
57832;SDS011;43667;53.036;6.740;2023-04-15T12:51:54;5.28;;;1.50;;
57832;SDS011;43667;53.036;6.740;2023-04-15T12:54:21;6.43;;;1.63;;
57832;SDS011;43667;53.036;6.740;2023-04-15T12:56:47;7.95;;;1.70;;
57832;SDS011;43667;53.036;6.740;2023-04-15T12:59:14;8.60;;;1.83;;
57832;SDS011;43667;53.036;6.740;2023-04-15T13:01:42;8.75;;;1.80;;
57832;SDS011;43667;53.036;6.740;2023-04-15T13:04:08;10.43;;;2.30;;
57832;SDS011;43667;53.036;6.740;2023-04-15T13:06:34;10.57;;;1.80;;
57832;SDS011;43667;53.036;6.740;2023-04-15T13:09:00;10.18;;;1.90;;
57832;SDS011;43667;53.036;6.740;2023-04-15T13:11:27;8.80;;;1.73;;
57832;SDS011;43667;53.036;6.740;2023-04-15T13:13:55;11.40;;;1.75;;
57832;SDS011;43667;53.036;6.740;2023-04-15T13:16:22;7.40;;;1.95;;
57832;SDS011;43667;53.036;6.740;2023-04-15T13:18:47;10.20;;;2.03;;
57832;SDS011;43667;53.036;6.740;2023-04-15T13:21:13;12.20;;;2.13;;
57832;SDS011;43667;53.036;6.740;2023-04-15T13:23:42;9.88;;;1.92;;
57832;SDS011;43667;53.036;6.740;2023-04-15T13:26:08;7.93;;;1.83;;
57832;SDS011;43667;53.036;6.740;2023-04-15T13:28:33;15.43;;;2.05;;
57832;SDS011;43667;53.036;6.740;2023-04-15T13:30:59;9.13;;;1.88;;
57832;SDS011;43667;53.036;6.740;2023-04-15T13:33:25;7.15;;;1.70;;
57832;SDS011;43667;53.036;6.740;2023-04-15T13:35:51;11.98;;;2.80;;
57832;SDS011;43667;53.036;6.740;2023-04-15T13:38:17;8.30;;;1.73;;
57832;SDS011;43667;53.036;6.740;2023-04-15T13:40:42;14.32;;;2.08;;
57832;SDS011;43667;53.036;6.740;2023-04-15T13:43:08;11.20;;;2.05;;
57832;SDS011;43667;53.036;6.740;2023-04-15T13:45:34;9.25;;;2.08;;
57832;SDS011;43667;53.036;6.740;2023-04-15T13:48:00;14.95;;;2.65;;
57832;SDS011;43667;53.036;6.740;2023-04-15T13:50:26;8.18;;;1.42;;
57832;SDS011;43667;53.036;6.740;2023-04-15T13:52:52;12.35;;;1.77;;
57832;SDS011;43667;53.036;6.740;2023-04-15T13:55:18;11.02;;;1.75;;
57832;SDS011;43667;53.036;6.740;2023-04-15T13:57:43;10.40;;;2.50;;
57832;SDS011;43667;53.036;6.740;2023-04-15T14:00:09;8.52;;;1.90;;
57832;SDS011;43667;53.036;6.740;2023-04-15T14:02:35;11.50;;;2.08;;
57832;SDS011;43667;53.036;6.740;2023-04-15T14:05:01;9.27;;;1.73;;
57832;SDS011;43667;53.036;6.740;2023-04-15T14:07:28;12.25;;;2.33;;
57832;SDS011;43667;53.036;6.740;2023-04-15T14:09:54;9.52;;;2.03;;
57832;SDS011;43667;53.036;6.740;2023-04-15T14:12:20;11.10;;;1.75;;
57832;SDS011;43667;53.036;6.740;2023-04-15T14:14:46;11.77;;;1.83;;
57832;SDS011;43667;53.036;6.740;2023-04-15T14:17:11;7.75;;;1.98;;
57832;SDS011;43667;53.036;6.740;2023-04-15T14:19:37;12.80;;;2.05;;
57832;SDS011;43667;53.036;6.740;2023-04-15T14:22:03;12.70;;;2.72;;
57832;SDS011;43667;53.036;6.740;2023-04-15T14:24:28;12.27;;;2.28;;
57832;SDS011;43667;53.036;6.740;2023-04-15T14:26:54;9.35;;;1.85;;
57832;SDS011;43667;53.036;6.740;2023-04-15T14:29:21;9.25;;;2.38;;
57832;SDS011;43667;53.036;6.740;2023-04-15T14:31:47;9.10;;;2.65;;
57832;SDS011;43667;53.036;6.740;2023-04-15T14:34:14;15.02;;;2.33;;
57832;SDS011;43667;53.036;6.740;2023-04-15T14:36:40;10.77;;;2.33;;
57832;SDS011;43667;53.036;6.740;2023-04-15T14:39:06;11.82;;;2.35;;
57832;SDS011;43667;53.036;6.740;2023-04-15T14:41:32;9.45;;;2.50;;
57832;SDS011;43667;53.036;6.740;2023-04-15T14:43:57;10.35;;;2.08;;